createdAt,value
2023-01-17T00:00:13.935Z,943.11
2023-01-17T00:00:43.125Z,943.31
2023-01-17T00:01:13.784Z,943.31
2023-01-17T00:01:44.989Z,943.21
2023-01-17T00:02:16.525Z,943.21
2023-01-17T00:02:46.874Z,943.11
2023-01-17T00:03:18.548Z,943.11
2023-01-17T00:03:49.606Z,943.11
2023-01-17T00:04:20.738Z,943.11
2023-01-17T00:04:51.892Z,942.80
2023-01-17T00:05:22.604Z,942.80
2023-01-17T00:05:53.407Z,943.01
2023-01-17T00:06:23.852Z,943.01
2023-01-17T00:06:55.307Z,943.11
2023-01-17T00:07:26.114Z,943.11
2023-01-17T00:07:56.597Z,943.31
2023-01-17T00:08:27.721Z,943.31
2023-01-17T00:09:31.121Z,943.21
2023-01-17T00:10:01.682Z,943.41
2023-01-17T00:10:32.362Z,943.41
2023-01-17T00:11:02.926Z,943.41
2023-01-17T00:11:33.923Z,943.41
2023-01-17T00:12:05.059Z,943.21
2023-01-17T00:12:35.901Z,943.21
2023-01-17T00:13:07.065Z,943.21
2023-01-17T00:14:10.205Z,943.31
2023-01-17T00:14:40.579Z,943.51
2023-01-17T00:15:11.666Z,943.51
2023-01-17T00:15:42.241Z,943.41
2023-01-17T00:16:13.598Z,943.41
2023-01-17T00:16:43.935Z,943.41
2023-01-17T00:17:14.913Z,943.41
2023-01-17T00:17:45.527Z,943.31
2023-01-17T00:18:16.656Z,943.31
2023-01-17T00:18:48.400Z,943.31
2023-01-17T00:19:19.972Z,943.31
2023-01-17T00:19:50.788Z,943.51
2023-01-17T00:20:22.120Z,943.51
2023-01-17T00:20:52.686Z,943.62
2023-01-17T00:21:23.355Z,943.62
2023-01-17T00:21:53.993Z,943.62
2023-01-17T00:22:24.988Z,943.62
2023-01-17T00:22:55.618Z,943.31
2023-01-17T00:23:26.757Z,943.31
2023-01-17T00:23:57.649Z,943.31
2023-01-17T00:24:29.510Z,943.31
2023-01-17T00:25:01.020Z,943.51
2023-01-17T00:25:31.887Z,943.51
2023-01-17T00:26:02.484Z,943.62
2023-01-17T00:26:32.967Z,943.62
2023-01-17T00:27:03.854Z,943.51
2023-01-17T00:27:34.948Z,943.51
2023-01-17T00:28:05.958Z,943.62
2023-01-17T00:28:36.852Z,943.62
2023-01-17T00:29:08.567Z,943.62
2023-01-17T00:29:40.463Z,943.62
2023-01-17T00:30:12.397Z,943.62
2023-01-17T00:30:43.447Z,943.62
2023-01-17T00:31:12.465Z,943.62
2023-01-17T00:31:44.061Z,943.51
2023-01-17T00:32:14.588Z,943.51
2023-01-17T00:32:45.191Z,943.41
2023-01-17T00:33:15.805Z,943.41
2023-01-17T00:33:47.991Z,943.78
2023-01-17T00:34:18.149Z,943.78
2023-01-17T00:34:51.383Z,943.62
2023-01-17T00:35:20.972Z,943.62
2023-01-17T00:35:51.719Z,943.62
2023-01-17T00:36:23.456Z,943.62
2023-01-17T00:36:55.049Z,943.68
2023-01-17T00:37:55.021Z,943.62
2023-01-17T00:38:25.978Z,943.62
2023-01-17T00:38:56.959Z,943.68
2023-01-17T00:39:27.735Z,943.68
2023-01-17T00:39:59.849Z,943.78
2023-01-17T00:40:30.961Z,943.78
2023-01-17T00:41:02.046Z,943.62
2023-01-17T00:41:32.312Z,943.62
2023-01-17T00:42:03.318Z,943.68
2023-01-17T00:42:34.130Z,943.68
2023-01-17T00:43:05.066Z,943.78
2023-01-17T00:43:36.093Z,943.78
2023-01-17T00:44:06.983Z,943.78
2023-01-17T00:44:37.739Z,943.78
2023-01-17T00:45:10.527Z,943.78
2023-01-17T00:45:40.989Z,943.89
2023-01-17T00:46:12.338Z,943.89
2023-01-17T00:46:43.113Z,943.78
2023-01-17T00:47:13.450Z,943.78
2023-01-17T00:47:44.733Z,943.89
2023-01-17T00:48:15.039Z,943.89
2023-01-17T00:48:46.107Z,943.99
2023-01-17T00:49:16.733Z,943.99
2023-01-17T00:49:47.963Z,944.09
2023-01-17T00:50:20.574Z,944.09
2023-01-17T00:50:51.005Z,943.89
2023-01-17T00:51:21.956Z,943.89
2023-01-17T00:51:52.520Z,944.09
2023-01-17T00:52:23.582Z,944.09
2023-01-17T00:52:54.252Z,943.78
2023-01-17T00:53:24.922Z,943.78
2023-01-17T00:53:55.989Z,943.99
2023-01-17T00:54:26.944Z,943.99
2023-01-17T00:54:58.415Z,944.09
2023-01-17T00:55:29.486Z,944.09
2023-01-17T00:56:01.369Z,944.09
2023-01-17T00:56:32.032Z,944.09
2023-01-17T00:57:03.724Z,943.99
2023-01-17T00:57:33.421Z,943.99
2023-01-17T00:58:04.039Z,943.99
2023-01-17T00:58:34.824Z,943.99
2023-01-17T00:59:05.899Z,944.09
2023-01-17T00:59:37.257Z,944.09
2023-01-17T01:00:08.933Z,944.19
2023-01-17T01:01:02.489Z,944.19
2023-01-17T01:01:11.077Z,944.09
2023-01-17T01:01:42.422Z,944.09
2023-01-17T01:02:12.832Z,944.09
2023-01-17T01:02:43.859Z,944.19
2023-01-17T01:03:14.092Z,944.19
2023-01-17T01:03:45.149Z,944.09
2023-01-17T01:04:15.940Z,944.09
2023-01-17T01:04:46.735Z,944.29
2023-01-17T01:05:19.453Z,944.29
2023-01-17T01:05:49.087Z,944.29
2023-01-17T01:06:21.794Z,944.29
2023-01-17T01:06:52.200Z,944.29
2023-01-17T01:07:22.669Z,944.29
2023-01-17T01:07:55.436Z,944.19
2023-01-17T01:11:42.405Z,944.19
2023-01-17T01:12:04.867Z,944.60
2023-01-17T01:12:34.631Z,944.60
2023-01-17T01:13:05.213Z,944.39
2023-01-17T01:13:49.297Z,944.50
2023-01-17T01:14:05.000Z,944.50
2023-01-17T01:14:40.067Z,944.50
2023-01-17T01:15:09.312Z,944.29
2023-01-17T01:15:39.453Z,944.29
2023-01-17T01:16:10.117Z,944.60
2023-01-17T01:16:40.573Z,944.70
2023-01-17T01:17:13.830Z,944.70
2023-01-17T01:17:43.538Z,944.50
2023-01-17T01:18:13.403Z,944.50
2023-01-17T01:18:44.603Z,944.60
2023-01-17T01:19:16.486Z,944.60
2023-01-17T01:19:46.931Z,944.50
2023-01-17T01:20:19.740Z,944.50
2023-01-17T01:20:52.379Z,944.50
2023-01-17T01:21:29.344Z,944.50
2023-01-17T01:21:51.155Z,944.60
2023-01-17T01:22:22.676Z,944.60
2023-01-17T01:22:53.619Z,944.50
2023-01-17T01:23:24.374Z,944.50
2023-01-17T01:23:55.473Z,944.70
2023-01-17T01:24:26.599Z,944.70
2023-01-17T01:24:56.960Z,944.39
2023-01-17T01:25:27.739Z,944.39
2023-01-17T01:25:59.349Z,944.60
2023-01-17T01:26:29.651Z,944.60
2023-01-17T01:27:17.399Z,944.70
2023-01-17T01:27:31.977Z,944.70
2023-01-17T01:28:06.830Z,944.50
2023-01-17T01:28:36.337Z,944.50
2023-01-17T01:29:06.702Z,944.80
2023-01-17T01:29:36.530Z,944.80
2023-01-17T01:30:14.465Z,944.70
2023-01-17T01:30:38.746Z,944.70
2023-01-17T01:31:16.221Z,944.60
2023-01-17T01:31:41.683Z,944.80
2023-01-17T01:32:16.508Z,944.80
2023-01-17T01:32:45.724Z,944.50
2023-01-17T01:33:17.390Z,944.50
2023-01-17T01:33:45.322Z,944.70
2023-01-17T01:34:16.578Z,944.70
2023-01-17T01:34:53.002Z,944.80
2023-01-17T01:35:27.564Z,944.80
2023-01-17T01:35:50.441Z,944.70
2023-01-17T01:36:19.561Z,944.70
2023-01-17T01:36:50.630Z,944.80
2023-01-17T01:37:20.833Z,944.80
2023-01-17T01:38:16.517Z,944.60
2023-01-17T01:38:43.714Z,944.60
2023-01-17T01:38:54.696Z,944.70
2023-01-17T01:39:25.390Z,944.70
2023-01-17T01:39:56.047Z,944.70
2023-01-17T01:40:27.931Z,944.70
2023-01-17T01:40:58.196Z,944.80
2023-01-17T01:41:28.721Z,944.80
2023-01-17T01:41:59.684Z,944.90
2023-01-17T01:42:30.821Z,944.90
2023-01-17T01:43:01.949Z,944.80
2023-01-17T01:43:33.855Z,944.80
2023-01-17T01:44:04.522Z,944.80
2023-01-17T01:44:35.263Z,944.80
2023-01-17T01:45:07.832Z,944.70
2023-01-17T01:45:37.339Z,944.70
2023-01-17T01:46:08.037Z,944.90
2023-01-17T01:46:39.302Z,944.90
2023-01-17T01:47:09.382Z,945.00
2023-01-17T01:47:41.903Z,945.11
2023-01-17T01:48:20.314Z,945.11
2023-01-17T01:49:14.957Z,945.00
2023-01-17T01:49:45.519Z,945.00
2023-01-17T01:50:16.300Z,945.00
2023-01-17T01:50:47.262Z,944.90
2023-01-17T01:51:17.616Z,944.90
2023-01-17T01:51:48.821Z,945.00
2023-01-17T01:52:19.722Z,945.00
2023-01-17T01:52:50.723Z,945.11
2023-01-17T01:53:22.508Z,945.11
2023-01-17T01:53:53.059Z,945.00
2023-01-17T01:54:26.303Z,945.00
2023-01-17T01:54:55.478Z,945.21
2023-01-17T01:55:26.298Z,945.21
2023-01-17T01:55:58.059Z,945.00
2023-01-17T01:56:27.832Z,945.00
2023-01-17T01:56:58.851Z,945.11
2023-01-17T01:57:29.840Z,945.11
2023-01-17T01:58:00.936Z,945.11
2023-01-17T01:58:31.999Z,945.11
2023-01-17T01:59:02.652Z,945.11
2023-01-17T01:59:34.861Z,945.11
2023-01-17T02:00:09.075Z,945.21
2023-01-17T02:00:36.406Z,945.21
2023-01-17T02:01:09.761Z,945.41
2023-01-17T02:01:37.888Z,945.41
2023-01-17T02:02:08.882Z,945.21
2023-01-17T02:02:39.485Z,945.21
2023-01-17T02:03:11.126Z,945.21
2023-01-17T02:03:42.010Z,945.21
2023-01-17T02:04:13.516Z,945.21
2023-01-17T02:04:45.127Z,945.31
2023-01-17T02:05:34.522Z,945.31
2023-01-17T02:05:46.565Z,945.31
2023-01-17T02:06:17.932Z,945.31
2023-01-17T02:06:48.060Z,945.21
2023-01-17T02:07:18.941Z,945.21
2023-01-17T02:07:50.377Z,945.21
2023-01-17T02:08:21.172Z,945.21
2023-01-17T02:08:51.929Z,945.31
2023-01-17T02:09:24.852Z,945.31
2023-01-17T02:09:54.440Z,945.21
2023-01-17T02:10:26.701Z,945.21
2023-01-17T02:10:56.258Z,945.51
2023-01-17T02:11:26.844Z,945.51
2023-01-17T02:11:57.465Z,945.21
2023-01-17T02:12:29.215Z,945.21
2023-01-17T02:12:59.767Z,945.21
2023-01-17T02:13:30.720Z,945.21
2023-01-17T02:14:01.671Z,945.11
2023-01-17T02:14:32.901Z,945.11
2023-01-17T02:15:36.756Z,945.21
2023-01-17T02:16:06.370Z,945.51
2023-01-17T02:16:37.228Z,945.51
2023-01-17T02:17:11.785Z,945.31
2023-01-17T02:17:39.103Z,945.31
2023-01-17T02:18:10.037Z,945.31
2023-01-17T02:18:41.403Z,945.31
2023-01-17T02:19:11.703Z,945.31
2023-01-17T02:19:42.905Z,945.11
2023-01-17T02:20:14.949Z,945.11
2023-01-17T02:20:45.074Z,945.21
2023-01-17T02:21:16.497Z,945.21
2023-01-17T02:21:47.158Z,945.31
2023-01-17T02:22:18.086Z,945.31
2023-01-17T02:22:55.746Z,945.21
2023-01-17T02:23:50.664Z,945.11
2023-01-17T02:24:53.757Z,945.21
2023-01-17T02:25:25.262Z,945.21
2023-01-17T02:26:26.238Z,945.31
2023-01-17T02:26:57.392Z,945.11
2023-01-17T02:27:27.639Z,945.11
2023-01-17T02:27:58.666Z,945.21
2023-01-17T02:28:29.609Z,945.21
2023-01-17T02:29:01.010Z,945.00
2023-01-17T02:29:31.917Z,945.00
2023-01-17T02:30:03.469Z,945.41
2023-01-17T02:30:35.260Z,945.41
2023-01-17T02:31:05.534Z,945.11
2023-01-17T02:31:37.033Z,945.11
2023-01-17T02:32:07.583Z,945.31
2023-01-17T02:32:38.096Z,945.31
2023-01-17T02:33:09.153Z,945.41
2023-01-17T02:33:41.119Z,945.21
2023-01-17T02:34:45.482Z,945.21
2023-01-17T02:35:13.805Z,945.11
2023-01-17T02:35:43.576Z,945.41
2023-01-17T02:36:16.068Z,945.41
2023-01-17T02:36:46.732Z,945.21
2023-01-17T02:37:17.287Z,945.21
2023-01-17T02:37:48.161Z,945.41
2023-01-17T02:38:18.822Z,945.41
2023-01-17T02:38:50.395Z,945.31
2023-01-17T02:39:20.634Z,945.31
2023-01-17T02:39:55.967Z,945.31
2023-01-17T02:40:23.898Z,945.31
2023-01-17T02:40:54.054Z,945.31
2023-01-17T02:41:25.852Z,945.31
2023-01-17T02:41:56.052Z,945.61
2023-01-17T02:42:27.244Z,945.61
2023-01-17T02:42:57.603Z,945.51
2023-01-17T02:43:28.544Z,945.51
2023-01-17T02:44:07.056Z,945.41
2023-01-17T02:44:30.439Z,945.41
2023-01-17T02:45:02.488Z,945.31
2023-01-17T02:45:32.398Z,945.31
2023-01-17T02:46:04.167Z,945.41
2023-01-17T02:46:35.459Z,945.41
2023-01-17T02:47:07.345Z,945.31
2023-01-17T02:47:37.493Z,945.31
2023-01-17T02:48:07.981Z,945.51
2023-01-17T02:48:38.392Z,945.51
2023-01-17T02:49:09.452Z,945.51
2023-01-17T02:49:40.493Z,945.41
2023-01-17T02:50:12.384Z,945.41
2023-01-17T02:50:42.325Z,945.31
2023-01-17T02:51:14.942Z,945.31
2023-01-17T02:51:45.827Z,945.51
2023-01-17T02:52:16.742Z,945.51
2023-01-17T02:52:48.261Z,945.51
2023-01-17T02:53:18.407Z,945.51
2023-01-17T02:53:48.557Z,945.61
2023-01-17T02:54:19.359Z,945.61
2023-01-17T02:54:50.394Z,945.51
2023-01-17T02:55:21.405Z,945.51
2023-01-17T02:55:52.563Z,945.31
2023-01-17T02:56:24.280Z,945.31
2023-01-17T02:56:55.499Z,945.31
2023-01-17T02:57:26.645Z,945.31
2023-01-17T02:57:57.242Z,945.41
2023-01-17T02:58:27.266Z,945.41
2023-01-17T02:58:58.920Z,945.41
2023-01-17T02:59:29.271Z,945.41
2023-01-17T03:00:01.247Z,945.41
2023-01-17T03:00:32.050Z,945.41
2023-01-17T03:01:02.562Z,945.41
2023-01-17T03:01:35.297Z,945.41
2023-01-17T03:02:05.771Z,945.51
2023-01-17T03:02:52.702Z,945.41
2023-01-17T03:03:07.367Z,945.41
2023-01-17T03:03:37.665Z,945.41
2023-01-17T03:04:09.304Z,945.41
2023-01-17T03:04:39.521Z,945.51
2023-01-17T03:05:11.369Z,945.51
2023-01-17T03:05:41.888Z,945.51
2023-01-17T03:06:13.471Z,945.51
2023-01-17T03:06:44.310Z,945.51
2023-01-17T03:07:15.801Z,945.51
2023-01-17T03:08:17.532Z,945.61
2023-01-17T03:08:48.078Z,945.51
2023-01-17T03:09:19.039Z,945.51
2023-01-17T03:09:49.584Z,945.41
2023-01-17T03:10:51.716Z,945.51
2023-01-17T03:11:22.915Z,945.51
2023-01-17T03:11:53.855Z,945.71
2023-01-17T03:12:26.236Z,945.71
2023-01-17T03:12:56.505Z,945.61
2023-01-17T03:13:27.471Z,945.61
2023-01-17T03:13:58.000Z,945.61
2023-01-17T03:14:28.812Z,945.61
2023-01-17T03:14:59.604Z,945.61
2023-01-17T03:15:31.140Z,945.61
2023-01-17T03:16:01.935Z,945.71
2023-01-17T03:16:32.660Z,945.71
2023-01-17T03:17:05.015Z,945.78
2023-01-17T03:17:36.043Z,945.78
2023-01-17T03:18:06.740Z,945.71
2023-01-17T03:18:37.544Z,945.71
2023-01-17T03:19:08.474Z,945.78
2023-01-17T03:19:38.586Z,945.78
2023-01-17T03:20:10.336Z,945.78
2023-01-17T03:20:40.863Z,945.78
2023-01-17T03:21:12.029Z,945.78
2023-01-17T03:21:42.689Z,945.78
2023-01-17T03:22:14.184Z,945.78
2023-01-17T03:22:45.780Z,945.71
2023-01-17T03:23:16.867Z,945.71
2023-01-17T03:23:47.772Z,945.78
2023-01-17T03:24:18.450Z,945.78
2023-01-17T03:24:49.078Z,945.88
2023-01-17T03:25:19.845Z,945.88
2023-01-17T03:25:51.018Z,945.78
2023-01-17T03:26:21.744Z,945.78
2023-01-17T03:26:52.534Z,945.61
2023-01-17T03:27:24.055Z,945.61
2023-01-17T03:27:56.097Z,945.51
2023-01-17T03:28:27.118Z,945.51
2023-01-17T03:28:57.447Z,945.78
2023-01-17T03:29:28.086Z,945.78
2023-01-17T03:29:59.288Z,945.78
2023-01-17T03:30:30.367Z,945.78
2023-01-17T03:31:01.044Z,945.88
2023-01-17T03:31:32.092Z,945.88
2023-01-17T03:32:02.873Z,945.88
2023-01-17T03:32:33.873Z,945.88
2023-01-17T03:33:06.328Z,945.88
2023-01-17T03:33:37.470Z,945.88
2023-01-17T03:34:08.253Z,945.88
2023-01-17T03:34:39.148Z,945.88
2023-01-17T03:35:39.808Z,945.88
2023-01-17T03:36:11.194Z,945.88
2023-01-17T03:36:41.777Z,945.99
2023-01-17T03:37:13.156Z,945.99
2023-01-17T03:38:19.491Z,945.99
2023-01-17T03:38:32.237Z,945.78
2023-01-17T03:38:46.823Z,945.88
2023-01-17T03:39:18.399Z,945.88
2023-01-17T03:39:48.191Z,945.88
2023-01-17T03:40:19.783Z,945.88
2023-01-17T03:40:49.526Z,945.88
2023-01-17T03:41:20.817Z,945.88
2023-01-17T03:41:51.998Z,945.78
2023-01-17T03:42:22.522Z,945.78
2023-01-17T03:42:55.157Z,945.88
2023-01-17T03:43:26.047Z,945.88
2023-01-17T03:43:57.623Z,945.99
2023-01-17T03:44:27.855Z,945.99
2023-01-17T03:44:58.311Z,945.99
2023-01-17T03:45:29.574Z,945.99
2023-01-17T03:45:59.964Z,946.09
2023-01-17T03:46:31.023Z,946.09
2023-01-17T03:47:01.768Z,945.78
2023-01-17T03:47:32.756Z,945.78
2023-01-17T03:48:04.373Z,945.88
2023-01-17T03:49:07.182Z,945.99
2023-01-17T03:49:37.615Z,945.99
2023-01-17T03:50:09.571Z,946.09
2023-01-17T03:50:39.031Z,946.09
2023-01-17T03:51:10.184Z,945.99
2023-01-17T03:51:40.921Z,945.99
2023-01-17T03:52:12.001Z,945.99
2023-01-17T03:52:42.751Z,946.29
2023-01-17T03:53:14.698Z,946.29
2023-01-17T03:53:45.952Z,945.99
2023-01-17T03:54:17.500Z,945.99
2023-01-17T03:54:48.256Z,946.29
2023-01-17T03:55:19.132Z,946.29
2023-01-17T03:55:49.211Z,946.29
2023-01-17T03:56:38.211Z,946.29
2023-01-17T03:56:50.929Z,946.09
2023-01-17T03:57:21.876Z,946.09
2023-01-17T03:57:52.602Z,946.19
2023-01-17T03:58:23.570Z,946.19
2023-01-17T03:58:56.318Z,945.99
2023-01-17T03:59:58.380Z,946.19
2023-01-17T04:00:29.123Z,946.19
2023-01-17T04:00:59.586Z,946.19
2023-01-17T04:01:29.977Z,946.19
2023-01-17T04:02:01.372Z,946.19
2023-01-17T04:02:32.127Z,946.19
2023-01-17T04:03:02.888Z,946.19
2023-01-17T04:03:34.370Z,946.19
2023-01-17T04:04:06.143Z,946.19
2023-01-17T04:04:37.902Z,946.19
2023-01-17T04:05:08.576Z,945.99
2023-01-17T04:05:38.947Z,945.99
2023-01-17T04:06:10.137Z,946.09
2023-01-17T04:06:39.895Z,946.09
2023-01-17T04:07:11.083Z,946.09
2023-01-17T04:07:42.039Z,946.19
2023-01-17T04:08:13.429Z,946.19
2023-01-17T04:08:43.780Z,945.99
2023-01-17T04:09:14.839Z,945.99
2023-01-17T04:09:47.051Z,946.19
2023-01-17T04:10:18.780Z,946.19
2023-01-17T04:10:49.622Z,946.19
2023-01-17T04:11:19.418Z,946.19
2023-01-17T04:11:49.973Z,946.09
2023-01-17T04:12:20.996Z,946.09
2023-01-17T04:12:52.272Z,946.29
2023-01-17T04:13:22.827Z,946.29
2023-01-17T04:13:53.823Z,946.29
2023-01-17T04:14:27.010Z,946.29
2023-01-17T04:14:57.647Z,946.19
2023-01-17T04:16:04.043Z,946.19
2023-01-17T04:16:29.253Z,946.19
2023-01-17T04:16:59.887Z,946.19
2023-01-17T04:17:31.250Z,946.19
2023-01-17T04:18:02.071Z,946.19
2023-01-17T04:18:33.048Z,946.19
2023-01-17T04:19:04.024Z,946.09
2023-01-17T04:19:35.599Z,946.09
2023-01-17T04:20:07.490Z,946.09
2023-01-17T04:20:38.511Z,946.09
2023-01-17T04:21:08.675Z,946.19
2023-01-17T04:21:39.818Z,946.19
2023-01-17T04:22:09.712Z,946.09
2023-01-17T04:22:41.182Z,945.99
2023-01-17T04:23:12.334Z,945.99
2023-01-17T04:23:42.866Z,946.19
2023-01-17T04:24:13.955Z,946.19
2023-01-17T04:24:45.151Z,945.99
2023-01-17T04:25:17.691Z,945.99
2023-01-17T04:26:19.109Z,946.19
2023-01-17T04:26:49.504Z,946.09
2023-01-17T04:27:19.984Z,946.09
2023-01-17T04:27:50.975Z,946.09
2023-01-17T04:28:22.127Z,946.09
2023-01-17T04:28:53.216Z,946.09
2023-01-17T04:29:23.991Z,946.09
2023-01-17T04:29:55.440Z,946.29
2023-01-17T04:30:27.978Z,946.29
2023-01-17T04:30:58.565Z,946.19
2023-01-17T04:31:29.378Z,946.19
2023-01-17T04:32:01.739Z,946.09
2023-01-17T04:32:30.112Z,946.09
2023-01-17T04:33:01.227Z,946.09
2023-01-17T04:33:31.985Z,946.09
2023-01-17T04:34:03.248Z,946.09
2023-01-17T04:34:33.933Z,946.09
2023-01-17T04:35:05.737Z,946.19
2023-01-17T04:35:37.197Z,946.19
2023-01-17T04:36:07.906Z,946.49
2023-01-17T04:36:38.794Z,946.49
2023-01-17T04:37:09.831Z,946.39
2023-01-17T04:37:40.171Z,946.49
2023-01-17T04:38:10.987Z,946.49
2023-01-17T04:38:41.758Z,946.39
2023-01-17T04:39:13.404Z,946.39
2023-01-17T04:39:43.803Z,946.49
2023-01-17T04:40:15.896Z,946.49
2023-01-17T04:40:46.911Z,946.29
2023-01-17T04:41:18.079Z,946.29
2023-01-17T04:41:48.993Z,946.29
2023-01-17T04:42:19.546Z,946.29
2023-01-17T04:42:50.298Z,946.19
2023-01-17T04:43:21.322Z,946.19
2023-01-17T04:43:51.960Z,946.19
2023-01-17T04:44:23.124Z,946.19
2023-01-17T04:44:53.830Z,946.49
2023-01-17T04:45:25.974Z,946.49
2023-01-17T04:45:59.801Z,946.49
2023-01-17T04:46:28.107Z,946.49
2023-01-17T04:47:00.637Z,946.60
2023-01-17T04:47:29.723Z,946.60
2023-01-17T04:48:01.047Z,946.49
2023-01-17T04:48:33.753Z,946.49
2023-01-17T04:49:01.958Z,946.70
2023-01-17T04:49:33.609Z,946.70
2023-01-17T04:50:18.890Z,946.60
2023-01-17T04:50:34.931Z,946.60
2023-01-17T04:51:08.016Z,946.29
2023-01-17T04:51:38.553Z,946.29
2023-01-17T04:52:08.823Z,946.49
2023-01-17T04:52:39.788Z,946.49
2023-01-17T04:53:10.722Z,946.49
2023-01-17T04:54:12.536Z,946.60
2023-01-17T04:54:42.907Z,946.39
2023-01-17T04:55:14.088Z,946.39
2023-01-17T04:56:16.863Z,946.70
2023-01-17T04:56:48.214Z,946.70
2023-01-17T04:57:19.113Z,946.70
2023-01-17T04:57:49.911Z,946.80
2023-01-17T04:58:20.659Z,946.80
2023-01-17T04:58:51.135Z,946.80
2023-01-17T04:59:21.840Z,946.80
2023-01-17T04:59:53.012Z,946.80
2023-01-17T05:00:29.465Z,946.80
2023-01-17T05:00:55.256Z,946.60
2023-01-17T05:01:26.156Z,946.60
2023-01-17T05:01:57.270Z,946.80
2023-01-17T05:02:28.985Z,946.80
2023-01-17T05:02:59.708Z,946.60
2023-01-17T05:03:30.688Z,946.60
2023-01-17T05:04:19.268Z,946.80
2023-01-17T05:04:32.255Z,946.80
2023-01-17T05:05:03.719Z,946.70
2023-01-17T05:05:33.952Z,946.70
2023-01-17T05:06:05.466Z,946.70
2023-01-17T05:06:35.982Z,946.70
2023-01-17T05:07:08.714Z,946.70
2023-01-17T05:07:39.447Z,946.70
2023-01-17T05:08:09.337Z,946.80
2023-01-17T05:08:40.463Z,946.90
2023-01-17T05:09:11.125Z,946.90
2023-01-17T05:09:41.813Z,946.90
2023-01-17T05:10:13.578Z,946.90
2023-01-17T05:10:43.835Z,946.90
2023-01-17T05:11:18.699Z,946.90
2023-01-17T05:11:46.028Z,946.80
2023-01-17T05:12:17.744Z,946.80
2023-01-17T05:12:49.476Z,947.00
2023-01-17T05:13:20.062Z,947.00
2023-01-17T05:13:50.993Z,946.80
2023-01-17T05:14:21.259Z,946.80
2023-01-17T05:14:52.263Z,947.00
2023-01-17T05:15:24.051Z,947.00
2023-01-17T05:15:54.007Z,947.00
2023-01-17T05:16:25.683Z,947.00
2023-01-17T05:16:56.154Z,947.31
2023-01-17T05:17:29.490Z,947.31
2023-01-17T05:17:59.396Z,946.90
2023-01-17T05:18:30.840Z,946.90
2023-01-17T05:19:00.445Z,947.10
2023-01-17T05:19:50.066Z,947.00
2023-01-17T05:20:33.230Z,947.00
2023-01-17T05:21:04.450Z,947.10
2023-01-17T05:21:35.365Z,947.10
2023-01-17T05:22:06.276Z,947.20
2023-01-17T05:22:38.089Z,947.20
2023-01-17T05:23:08.899Z,947.10
2023-01-17T05:23:40.317Z,947.10
2023-01-17T05:24:11.436Z,947.20
2023-01-17T05:24:41.776Z,947.31
2023-01-17T05:25:12.255Z,947.31
2023-01-17T05:25:43.339Z,947.20
2023-01-17T05:26:14.459Z,947.20
2023-01-17T05:26:45.017Z,947.31
2023-01-17T05:27:16.570Z,947.31
2023-01-17T05:27:49.272Z,947.20
2023-01-17T05:28:19.879Z,947.20
2023-01-17T05:28:50.851Z,947.31
2023-01-17T05:29:21.077Z,947.31
2023-01-17T05:30:02.175Z,947.31
2023-01-17T05:30:23.434Z,947.31
2023-01-17T05:30:53.416Z,947.20
2023-01-17T05:31:24.824Z,947.20
2023-01-17T05:31:55.785Z,947.41
2023-01-17T05:32:27.027Z,947.41
2023-01-17T05:32:59.916Z,947.41
2023-01-17T05:33:30.070Z,947.41
2023-01-17T05:34:00.624Z,947.41
2023-01-17T05:34:31.249Z,947.41
2023-01-17T05:35:02.231Z,947.51
2023-01-17T05:35:33.155Z,947.51
2023-01-17T05:36:04.064Z,947.31
2023-01-17T05:36:34.145Z,947.31
2023-01-17T05:37:05.473Z,947.61
2023-01-17T05:37:36.109Z,947.61
2023-01-17T05:38:08.065Z,947.51
2023-01-17T05:38:39.325Z,947.51
2023-01-17T05:39:09.979Z,947.51
2023-01-17T05:39:40.688Z,947.51
2023-01-17T05:40:12.721Z,947.51
2023-01-17T05:40:43.003Z,947.31
2023-01-17T05:41:13.261Z,947.31
2023-01-17T05:41:44.451Z,947.41
2023-01-17T05:42:15.256Z,947.41
2023-01-17T05:42:46.864Z,947.61
2023-01-17T05:43:19.842Z,947.61
2023-01-17T05:44:05.562Z,947.51
2023-01-17T05:44:20.746Z,947.51
2023-01-17T05:44:51.580Z,947.71
2023-01-17T05:45:32.584Z,947.71
2023-01-17T05:45:52.902Z,947.51
2023-01-17T05:46:23.616Z,947.51
2023-01-17T05:46:54.597Z,947.61
2023-01-17T05:47:25.730Z,947.61
2023-01-17T05:47:56.664Z,947.71
2023-01-17T05:48:27.198Z,947.71
2023-01-17T05:49:00.844Z,947.51
2023-01-17T05:49:31.520Z,947.51
2023-01-17T05:50:02.891Z,947.51
2023-01-17T05:50:33.047Z,947.51
2023-01-17T05:51:03.374Z,947.61
2023-01-17T05:51:34.211Z,947.61
2023-01-17T05:52:04.878Z,947.71
2023-01-17T05:52:53.326Z,947.51
2023-01-17T05:53:06.694Z,947.51
2023-01-17T05:53:38.676Z,947.51
2023-01-17T05:54:10.115Z,947.81
2023-01-17T05:54:41.447Z,947.61
2023-01-17T05:55:13.362Z,947.61
2023-01-17T05:55:43.420Z,947.71
2023-01-17T05:56:12.437Z,947.71
2023-01-17T05:56:43.455Z,947.61
2023-01-17T05:57:14.533Z,947.61
2023-01-17T05:57:45.525Z,947.71
2023-01-17T05:58:16.412Z,947.71
2023-01-17T05:58:48.431Z,947.71
2023-01-17T05:59:32.277Z,947.71
2023-01-17T05:59:51.415Z,947.71
2023-01-17T06:00:23.646Z,947.71
2023-01-17T06:00:51.983Z,947.71
2023-01-17T06:01:22.803Z,947.71
2023-01-17T06:02:21.087Z,947.71
2023-01-17T06:02:42.473Z,947.61
2023-01-17T06:02:55.975Z,947.61
2023-01-17T06:03:26.540Z,947.61
2023-01-17T06:03:58.263Z,947.81
2023-01-17T06:04:30.572Z,947.81
2023-01-17T06:05:03.333Z,947.81
2023-01-17T06:05:31.702Z,947.81
2023-01-17T06:06:02.466Z,947.81
2023-01-17T06:06:33.723Z,947.81
2023-01-17T06:07:03.684Z,947.81
2023-01-17T06:07:34.810Z,947.81
2023-01-17T06:08:05.727Z,947.81
2023-01-17T06:08:37.671Z,947.81
2023-01-17T06:09:12.857Z,947.98
2023-01-17T06:09:56.144Z,947.88
2023-01-17T06:15:52.683Z,947.88
2023-01-17T06:16:27.728Z,947.88
2023-01-17T06:16:55.738Z,948.09
2023-01-17T06:17:25.437Z,948.09
2023-01-17T06:17:54.928Z,947.88
2023-01-17T06:18:25.765Z,947.88
2023-01-17T06:18:57.256Z,947.98
2023-01-17T06:19:27.377Z,947.98
2023-01-17T06:19:59.383Z,948.19
2023-01-17T06:20:31.620Z,948.19
2023-01-17T06:21:02.803Z,947.88
2023-01-17T06:21:51.420Z,948.09
2023-01-17T06:22:03.553Z,948.09
2023-01-17T06:22:53.115Z,948.09
2023-01-17T06:23:04.879Z,948.09
2023-01-17T06:23:35.849Z,948.09
2023-01-17T06:24:07.007Z,948.09
2023-01-17T06:24:37.558Z,948.09
2023-01-17T06:25:11.821Z,947.98
2023-01-17T06:25:57.586Z,947.98
2023-01-17T06:26:12.030Z,947.98
2023-01-17T06:26:44.272Z,948.09
2023-01-17T06:27:13.665Z,948.09
2023-01-17T06:27:44.016Z,948.19
2023-01-17T06:28:14.561Z,948.19
2023-01-17T06:28:45.316Z,948.29
2023-01-17T06:29:23.188Z,948.29
2023-01-17T06:29:47.746Z,948.09
2023-01-17T06:30:23.677Z,948.09
2023-01-17T06:30:52.055Z,947.98
2023-01-17T06:31:22.637Z,947.98
2023-01-17T06:31:53.070Z,947.98
2023-01-17T06:32:23.404Z,947.98
2023-01-17T06:32:53.941Z,948.19
2023-01-17T06:33:26.055Z,948.19
2023-01-17T06:33:56.077Z,948.29
2023-01-17T06:34:26.966Z,948.29
2023-01-17T06:34:57.775Z,948.09
2023-01-17T06:35:32.719Z,948.09
2023-01-17T06:36:27.150Z,948.19
2023-01-17T06:36:32.285Z,948.19
2023-01-17T06:37:03.886Z,948.19
2023-01-17T06:37:33.578Z,948.19
2023-01-17T06:38:03.934Z,948.19
2023-01-17T06:38:35.196Z,948.19
2023-01-17T06:39:05.834Z,948.29
2023-01-17T06:39:42.461Z,948.29
2023-01-17T06:40:09.132Z,948.09
2023-01-17T06:40:39.865Z,948.09
2023-01-17T06:41:10.858Z,948.39
2023-01-17T06:41:42.163Z,948.19
2023-01-17T06:42:11.926Z,948.19
2023-01-17T06:42:44.079Z,948.19
2023-01-17T06:43:14.254Z,948.19
2023-01-17T06:44:42.765Z,948.29
2023-01-17T06:44:47.024Z,948.19
2023-01-17T06:45:18.824Z,948.19
2023-01-17T06:45:51.214Z,948.39